Time;durP1;ratioP1;P1;durP2;ratioP2;P2;SDS_P1;SDS_P2;PMS_P1;PMS_P2;Temp;Humidity;BMP_temperature;BMP_pressure;BME280_temperature;BME280_humidity;BME280_pressure;Samples;Min_cycle;Max_cycle;Signal;HPM_P1;HPM_P2
2022/08/13 00:01:56;;;;;;;;;;;22.80;57.40;;;;;;5043389;28;89574;-37
2022/08/13 00:04:21;;;;;;;;;;;22.80;57.40;;;;;;5043156;28;87997;-37
2022/08/13 00:09:27;;;;;;;;;;;22.80;57.40;;;;;;5040887;28;87901;-37
2022/08/13 00:14:37;;;;;;;;;;;22.80;57.40;;;;;;5046690;28;86911;-37
2022/08/13 00:17:08;;;;;;;;;;;22.80;57.60;;;;;;5043739;28;86965;-37
2022/08/13 00:19:33;;;;;;;;;;;22.80;57.60;;;;;;5043481;27;87597;-37
2022/08/13 00:21:59;;;;;;;;;;;22.80;57.60;;;;;;5042421;28;90705;-37
2022/08/13 00:24:25;;;;;;;;;;;22.80;57.50;;;;;;5043236;28;87008;-37
2022/08/13 00:26:51;;;;;;;;;;;22.80;57.60;;;;;;5043685;28;87494;-37
2022/08/13 00:29:16;;;;;;;;;;;22.80;57.70;;;;;;5043071;28;89233;-37
2022/08/13 00:31:46;;;;;;;;;;;22.70;57.60;;;;;;5043928;28;86988;-37
2022/08/13 00:34:11;;;;;;;;;;;22.70;57.50;;;;;;5043446;27;86863;-37
2022/08/13 00:36:37;;;;;;;;;;;22.70;57.60;;;;;;5046213;28;88016;-37
2022/08/13 00:39:03;;;;;;;;;;;22.70;57.60;;;;;;5043610;28;87542;-37
2022/08/13 00:41:38;;;;;;;;;;;22.70;57.70;;;;;;5043199;28;88200;-37
2022/08/13 00:44:05;;;;;;;;;;;22.70;57.70;;;;;;5043592;28;87017;-37
2022/08/13 00:46:31;;;;;;;;;;;22.70;57.50;;;;;;5043688;27;87963;-37
2022/08/13 00:48:57;;;;;;;;;;;22.70;57.70;;;;;;5042868;28;88313;-37
2022/08/13 00:51:24;;;;;;;;;;;22.70;57.70;;;;;;5043531;28;86946;-37
2022/08/13 00:53:49;;;;;;;;;;;22.60;57.70;;;;;;5042380;28;87994;-37
2022/08/13 00:56:15;;;;;;;;;;;22.70;57.70;;;;;;5043130;28;87788;-37
2022/08/13 00:58:41;;;;;;;;;;;22.70;57.70;;;;;;5046221;28;87072;-37
2022/08/13 01:01:07;;;;;;;;;;;22.70;57.70;;;;;;5042820;28;87984;-37
2022/08/13 01:03:34;;;;;;;;;;;22.60;57.70;;;;;;5043049;28;87133;-37
2022/08/13 01:06:01;;;;;;;;;;;22.70;57.70;;;;;;5043088;27;88938;-37
2022/08/13 01:08:27;;;;;;;;;;;22.60;57.80;;;;;;5042415;28;88475;-37
2022/08/13 01:10:56;;;;;;;;;;;22.60;57.70;;;;;;5043496;28;86406;-37
2022/08/13 01:13:25;;;;;;;;;;;22.60;57.80;;;;;;5042818;28;88260;-37
2022/08/13 01:15:51;;;;;;;;;;;22.60;57.90;;;;;;5042081;28;87905;-37
2022/08/13 01:18:18;;;;;;;;;;;22.60;58.00;;;;;;5042047;28;89193;-37
2022/08/13 01:20:45;;;;;;;;;;;22.60;57.90;;;;;;5044647;28;90343;-37
2022/08/13 01:23:11;;;;;;;;;;;22.60;58.00;;;;;;5042707;28;87058;-37
2022/08/13 01:25:36;;;;;;;;;;;22.60;57.90;;;;;;5042887;27;87386;-37
2022/08/13 01:28:02;;;;;;;;;;;22.60;57.90;;;;;;5042551;28;87192;-37
2022/08/13 01:30:29;;;;;;;;;;;22.60;57.90;;;;;;5042926;28;87157;-37
2022/08/13 01:32:54;;;;;;;;;;;22.50;57.90;;;;;;5042648;27;88016;-37
2022/08/13 01:35:21;;;;;;;;;;;22.60;58.00;;;;;;5042771;28;88115;-37
2022/08/13 01:37:53;;;;;;;;;;;22.50;57.90;;;;;;5042906;28;86811;-37
2022/08/13 01:40:19;;;;;;;;;;;22.50;57.90;;;;;;5042642;27;89336;-37
2022/08/13 01:42:45;;;;;;;;;;;22.50;57.90;;;;;;5044411;28;88958;-37
2022/08/13 01:45:11;;;;;;;;;;;22.50;57.90;;;;;;5042535;27;88269;-37
2022/08/13 01:50:31;;;;;;;;;;;22.50;58.00;;;;;;5042881;28;86755;-37
2022/08/13 01:53:00;;;;;;;;;;;22.50;58.00;;;;;;5042449;27;88805;-37
2022/08/13 01:55:29;;;;;;;;;;;22.50;58.10;;;;;;5041985;28;89488;-37
2022/08/13 01:57:54;;;;;;;;;;;22.50;58.00;;;;;;5041777;28;87007;-37
2022/08/13 02:00:21;;;;;;;;;;;22.40;58.00;;;;;;5042983;27;87353;-37
2022/08/13 02:02:48;;;;;;;;;;;22.50;58.00;;;;;;5041971;28;87955;-37
2022/08/13 02:05:13;;;;;;;;;;;22.40;58.00;;;;;;5045026;27;86844;-37
2022/08/13 02:07:42;;;;;;;;;;;22.40;58.10;;;;;;5041367;28;89129;-37
2022/08/13 02:10:07;;;;;;;;;;;22.40;58.10;;;;;;5042259;28;87295;-37
2022/08/13 02:12:34;;;;;;;;;;;22.40;58.20;;;;;;5042004;28;87502;-37
2022/08/13 02:15:01;;;;;;;;;;;22.40;58.20;;;;;;5041433;28;88302;-37
2022/08/13 02:17:27;;;;;;;;;;;22.40;58.20;;;;;;5042220;28;87481;-37
2022/08/13 02:22:41;;;;;;;;;;;22.40;58.30;;;;;;5041964;28;86990;-37
2022/08/13 02:25:07;;;;;;;;;;;22.40;58.30;;;;;;5045173;28;86376;-37
2022/08/13 02:27:33;;;;;;;;;;;22.40;58.20;;;;;;5040174;28;89319;-37
2022/08/13 02:29:59;;;;;;;;;;;22.40;58.20;;;;;;5042064;28;87100;-37
2022/08/13 02:32:24;;;;;;;;;;;22.40;58.30;;;;;;5044019;27;87969;-37
2022/08/13 02:34:50;;;;;;;;;;;22.30;58.40;;;;;;5045297;28;87799;-37
2022/08/13 02:37:21;;;;;;;;;;;22.30;58.40;;;;;;5045602;28;87134;-37
2022/08/13 02:39:48;;;;;;;;;;;22.40;58.20;;;;;;5045081;28;87562;-37
2022/08/13 02:42:13;;;;;;;;;;;22.30;58.20;;;;;;5044948;28;89541;-37
2022/08/13 02:44:40;;;;;;;;;;;22.30;58.30;;;;;;5045141;28;87081;-37
2022/08/13 02:47:05;;;;;;;;;;;22.30;58.40;;;;;;5048095;28;87603;-37
2022/08/13 02:49:32;;;;;;;;;;;22.30;58.40;;;;;;5045785;28;86346;-37
2022/08/13 02:51:59;;;;;;;;;;;22.30;58.30;;;;;;5044952;28;88347;-37
2022/08/13 02:54:26;;;;;;;;;;;22.30;58.40;;;;;;5044763;28;87981;-37
2022/08/13 02:56:52;;;;;;;;;;;22.30;58.50;;;;;;5044581;28;87817;-37
2022/08/13 02:59:17;;;;;;;;;;;22.30;58.50;;;;;;5045187;27;88323;-37
2022/08/13 03:01:43;;;;;;;;;;;22.20;58.40;;;;;;5044840;28;88194;-37
2022/08/13 03:04:09;;;;;;;;;;;22.20;58.50;;;;;;5045274;28;87187;-37
2022/08/13 03:06:35;;;;;;;;;;;22.20;58.50;;;;;;5044921;27;88817;-37
2022/08/13 03:09:02;;;;;;;;;;;22.30;58.40;;;;;;5047477;28;88028;-37
2022/08/13 03:11:29;;;;;;;;;;;22.20;58.40;;;;;;5044826;27;88866;-37
2022/08/13 03:14:01;;;;;;;;;;;22.20;58.60;;;;;;5045227;28;87452;-37
2022/08/13 03:16:27;;;;;;;;;;;22.20;58.50;;;;;;5044381;28;87143;-37
2022/08/13 03:18:54;;;;;;;;;;;22.20;58.50;;;;;;5045176;27;87397;-37
2022/08/13 03:21:21;;;;;;;;;;;22.20;58.60;;;;;;5043514;28;90425;-37
2022/08/13 03:23:47;;;;;;;;;;;22.20;58.50;;;;;;5044645;28;87158;-37
2022/08/13 03:26:13;;;;;;;;;;;22.20;58.70;;;;;;5043340;28;88125;-37
2022/08/13 03:28:39;;;;;;;;;;;22.20;58.60;;;;;;5043945;28;89601;-37
2022/08/13 03:31:05;;;;;;;;;;;22.20;58.60;;;;;;5047730;28;87154;-37
2022/08/13 03:33:31;;;;;;;;;;;22.10;58.60;;;;;;5043911;28;88693;-37
2022/08/13 03:35:57;;;;;;;;;;;22.10;58.60;;;;;;5044349;28;87409;-37
2022/08/13 03:38:23;;;;;;;;;;;22.10;58.60;;;;;;5044711;27;88858;-38
2022/08/13 03:41:00;;;;;;;;;;;22.10;58.60;;;;;;5044166;28;87978;-37
2022/08/13 03:43:27;;;;;;;;;;;22.10;58.70;;;;;;5044130;27;86880;-37
2022/08/13 03:45:54;;;;;;;;;;;22.10;58.60;;;;;;5043801;27;88012;-37
2022/08/13 03:48:21;;;;;;;;;;;22.10;58.70;;;;;;5043914;28;87335;-37
2022/08/13 03:50:48;;;;;;;;;;;22.10;58.60;;;;;;5043984;28;87128;-37
2022/08/13 03:53:16;;;;;;;;;;;22.10;58.70;;;;;;5046723;27;87454;-37
2022/08/13 03:55:42;;;;;;;;;;;22.00;58.70;;;;;;5044146;28;86966;-37
2022/08/13 03:58:08;;;;;;;;;;;22.10;58.70;;;;;;5044077;27;88878;-37
2022/08/13 04:00:34;;;;;;;;;;;22.10;58.80;;;;;;5043787;28;88227;-37
2022/08/13 04:03:00;;;;;;;;;;;22.10;58.80;;;;;;5044757;28;86380;-37
2022/08/13 04:05:26;;;;;;;;;;;22.00;58.80;;;;;;5044156;27;87305;-37
2022/08/13 04:07:52;;;;;;;;;;;22.00;58.90;;;;;;5043743;28;87965;-37
2022/08/13 04:10:18;;;;;;;;;;;22.00;58.90;;;;;;5043007;28;88067;-37
2022/08/13 04:12:44;;;;;;;;;;;22.00;58.80;;;;;;5046459;27;88439;-37
2022/08/13 04:15:09;;;;;;;;;;;22.00;58.80;;;;;;5043590;28;87127;-37
2022/08/13 04:17:36;;;;;;;;;;;22.10;58.90;;;;;;5044135;28;87567;-37
2022/08/13 04:20:05;;;;;;;;;;;22.00;58.90;;;;;;5043134;28;88743;-37
2022/08/13 04:22:31;;;;;;;;;;;22.00;58.90;;;;;;5044071;28;87005;-37
2022/08/13 04:24:58;;;;;;;;;;;22.00;59.00;;;;;;5043687;27;87745;-37
2022/08/13 04:27:24;;;;;;;;;;;22.00;59.00;;;;;;5043499;28;89014;-37
2022/08/13 04:29:51;;;;;;;;;;;22.00;59.00;;;;;;5043734;28;87085;-37
2022/08/13 04:32:19;;;;;;;;;;;22.00;59.00;;;;;;5043639;27;88984;-37
2022/08/13 04:34:45;;;;;;;;;;;22.00;58.90;;;;;;5045256;28;90737;-37
2022/08/13 04:37:11;;;;;;;;;;;21.90;58.90;;;;;;5043641;28;88373;-37
2022/08/13 04:39:37;;;;;;;;;;;22.00;59.00;;;;;;5043086;28;88031;-37
2022/08/13 04:42:03;;;;;;;;;;;21.90;58.90;;;;;;5043472;28;87393;-37
2022/08/13 04:44:28;;;;;;;;;;;21.90;58.90;;;;;;5043474;27;88925;-37
2022/08/13 04:46:55;;;;;;;;;;;21.90;59.00;;;;;;5043263;28;87278;-37
2022/08/13 04:49:20;;;;;;;;;;;21.90;59.00;;;;;;5043302;28;86855;-37
2022/08/13 04:51:46;;;;;;;;;;;21.90;59.00;;;;;;5043627;27;88946;-37
2022/08/13 04:54:11;;;;;;;;;;;21.90;59.00;;;;;;5042583;28;87772;-37
2022/08/13 04:56:37;;;;;;;;;;;21.90;59.00;;;;;;5045900;28;87127;-37
2022/08/13 04:59:03;;;;;;;;;;;21.90;59.00;;;;;;5042372;28;90326;-37
2022/08/13 05:01:29;;;;;;;;;;;21.90;58.90;;;;;;5042734;28;87111;-37
2022/08/13 05:03:55;;;;;;;;;;;21.90;59.10;;;;;;5042837;27;88786;-37
2022/08/13 05:06:21;;;;;;;;;;;21.90;59.00;;;;;;5042752;28;89566;-37
2022/08/13 05:08:48;;;;;;;;;;;21.90;58.90;;;;;;5042754;28;87144;-37
2022/08/13 05:11:14;;;;;;;;;;;21.90;59.00;;;;;;5043162;28;88027;-37
2022/08/13 05:13:40;;;;;;;;;;;21.80;59.00;;;;;;5042757;28;87174;-37
2022/08/13 05:16:07;;;;;;;;;;;21.90;59.20;;;;;;5042967;28;86383;-37
2022/08/13 05:18:34;;;;;;;;;;;21.90;59.10;;;;;;5045413;27;86988;-37
2022/08/13 05:21:03;;;;;;;;;;;21.90;59.10;;;;;;5042773;28;87011;-37
2022/08/13 05:23:29;;;;;;;;;;;21.90;59.00;;;;;;5041916;28;89581;-37
2022/08/13 05:25:55;;;;;;;;;;;21.80;59.00;;;;;;5042716;28;87247;-37
2022/08/13 05:28:20;;;;;;;;;;;21.90;59.10;;;;;;5043000;28;87364;-38
2022/08/13 05:30:49;;;;;;;;;;;21.90;59.10;;;;;;5041486;28;88973;-37
2022/08/13 05:33:16;;;;;;;;;;;21.80;59.00;;;;;;5041921;28;88209;-37
2022/08/13 05:35:42;;;;;;;;;;;21.80;59.00;;;;;;5042317;28;87126;-37
2022/08/13 05:38:08;;;;;;;;;;;21.80;59.00;;;;;;5042729;27;86911;-37
2022/08/13 05:40:35;;;;;;;;;;;21.80;59.10;;;;;;5045733;28;87191;-37
2022/08/13 05:43:02;;;;;;;;;;;21.80;59.10;;;;;;5042425;27;87519;-37
2022/08/13 05:45:27;;;;;;;;;;;21.80;59.10;;;;;;5042440;28;88055;-37
2022/08/13 05:47:53;;;;;;;;;;;21.80;59.20;;;;;;5041745;28;87889;-37
2022/08/13 05:50:18;;;;;;;;;;;21.80;59.00;;;;;;5042616;28;88299;-37
2022/08/13 05:52:44;;;;;;;;;;;21.80;59.10;;;;;;5042040;28;87991;-37
2022/08/13 05:55:11;;;;;;;;;;;21.80;59.20;;;;;;5042697;28;87115;-37
2022/08/13 05:57:37;;;;;;;;;;;21.80;59.10;;;;;;5042231;27;88850;-37
2022/08/13 06:05:32;;;;;;;;;;;21.80;59.10;;;;;;5042712;27;86626;-37
2022/08/13 06:07:58;;;;;;;;;;;21.80;59.10;;;;;;5045780;28;87222;-37
2022/08/13 06:10:24;;;;;;;;;;;21.80;59.10;;;;;;5045717;27;87891;-37
2022/08/13 06:12:49;;;;;;;;;;;21.80;59.10;;;;;;5044851;28;89060;-37
2022/08/13 06:15:15;;;;;;;;;;;21.80;59.10;;;;;;5045389;28;87191;-37
2022/08/13 06:17:41;;;;;;;;;;;21.80;59.10;;;;;;5045206;27;87751;-37
2022/08/13 06:20:07;;;;;;;;;;;21.80;59.10;;;;;;5045326;28;88052;-37
2022/08/13 06:22:33;;;;;;;;;;;21.80;59.10;;;;;;5048336;28;86937;-37
2022/08/13 06:25:02;;;;;;;;;;;21.80;59.00;;;;;;5044586;28;89946;-37
2022/08/13 06:27:28;;;;;;;;;;;21.80;59.10;;;;;;5045096;28;87593;-37
2022/08/13 06:29:57;;;;;;;;;;;21.80;59.30;;;;;;5045551;27;88901;-37
2022/08/13 06:32:23;;;;;;;;;;;21.80;59.10;;;;;;5044776;28;88058;-37
2022/08/13 06:34:51;;;;;;;;;;;21.80;59.30;;;;;;5045434;28;87068;-37
2022/08/13 06:37:16;;;;;;;;;;;21.80;59.10;;;;;;5044999;28;87935;-37
2022/08/13 06:39:43;;;;;;;;;;;21.80;59.20;;;;;;5044943;28;87937;-37
2022/08/13 06:42:09;;;;;;;;;;;21.80;59.20;;;;;;5045230;28;87172;-37
2022/08/13 06:44:34;;;;;;;;;;;21.80;59.20;;;;;;5047993;27;87371;-37
2022/08/13 06:47:02;;;;;;;;;;;21.80;59.20;;;;;;5045540;28;87016;-37
2022/08/13 06:49:27;;;;;;;;;;;21.80;59.10;;;;;;5045179;27;89267;-37
2022/08/13 06:51:53;;;;;;;;;;;21.80;59.10;;;;;;5045021;28;88421;-37
2022/08/13 06:54:19;;;;;;;;;;;21.80;59.30;;;;;;5045602;28;86372;-37
2022/08/13 06:56:44;;;;;;;;;;;21.80;59.20;;;;;;5044816;27;88087;-37
2022/08/13 06:59:12;;;;;;;;;;;21.80;59.30;;;;;;5044581;28;88380;-37
2022/08/13 07:01:37;;;;;;;;;;;21.80;59.30;;;;;;5044509;28;87814;-37
2022/08/13 07:04:03;;;;;;;;;;;21.80;59.20;;;;;;5045014;27;88349;-37
2022/08/13 07:06:29;;;;;;;;;;;21.80;59.20;;;;;;5047676;28;87798;-37
2022/08/13 07:08:56;;;;;;;;;;;21.80;59.20;;;;;;5044840;27;88775;-37
2022/08/13 07:11:22;;;;;;;;;;;21.80;59.30;;;;;;5044346;28;87920;-37
2022/08/13 07:13:53;;;;;;;;;;;21.80;59.20;;;;;;5043462;28;87122;-37
2022/08/13 07:16:21;;;;;;;;;;;21.80;59.30;;;;;;5044834;27;87386;-37
2022/08/13 07:18:48;;;;;;;;;;;21.80;59.30;;;;;;5043886;27;87325;-37
2022/08/13 07:21:14;;;;;;;;;;;21.80;59.30;;;;;;5044662;28;87125;-37
2022/08/13 07:23:41;;;;;;;;;;;21.80;59.20;;;;;;5044862;27;87427;-37
2022/08/13 07:26:07;;;;;;;;;;;21.80;59.30;;;;;;5043344;28;89059;-37
2022/08/13 07:28:33;;;;;;;;;;;21.80;59.40;;;;;;5047530;28;87097;-37
2022/08/13 07:30:59;;;;;;;;;;;21.80;59.30;;;;;;5044200;28;88233;-37
2022/08/13 07:33:25;;;;;;;;;;;21.80;59.20;;;;;;5044539;28;86976;-37
2022/08/13 07:35:51;;;;;;;;;;;21.80;59.40;;;;;;5044752;28;87548;-37
2022/08/13 07:38:16;;;;;;;;;;;21.80;59.40;;;;;;5044309;28;88095;-37
2022/08/13 07:40:45;;;;;;;;;;;21.80;59.30;;;;;;5044176;28;87125;-38
2022/08/13 07:43:12;;;;;;;;;;;21.80;59.30;;;;;;5044981;27;88625;-37
2022/08/13 07:45:39;;;;;;;;;;;21.80;59.30;;;;;;5044050;28;89559;-37
2022/08/13 07:48:06;;;;;;;;;;;21.80;59.30;;;;;;5044058;28;87164;-37
2022/08/13 07:50:33;;;;;;;;;;;21.80;59.30;;;;;;5046155;27;88007;-37
2022/08/13 07:52:59;;;;;;;;;;;21.80;59.40;;;;;;5044101;28;86923;-37
2022/08/13 07:55:25;;;;;;;;;;;21.80;59.40;;;;;;5044467;27;87388;-37
2022/08/13 07:57:51;;;;;;;;;;;21.80;59.20;;;;;;5043618;28;89561;-37
2022/08/13 08:00:25;;;;;;;;;;;21.80;59.40;;;;;;5044300;28;87045;-37
2022/08/13 08:03:01;;;;;;;;;;;21.80;59.40;;;;;;5044266;27;88017;-37
2022/08/13 08:05:27;;;;;;;;;;;21.80;59.30;;;;;;5043800;28;89580;-37
2022/08/13 08:07:53;;;;;;;;;;;21.80;59.20;;;;;;5044298;28;86363;-37
2022/08/13 08:10:20;;;;;;;;;;;21.80;59.20;;;;;;5044194;27;87073;-37
2022/08/13 08:12:46;;;;;;;;;;;21.80;59.10;;;;;;5046420;28;89708;-37
2022/08/13 08:15:11;;;;;;;;;;;21.80;59.00;;;;;;5042906;28;87938;-37
2022/08/13 08:17:37;;;;;;;;;;;21.80;58.90;;;;;;5043682;28;88010;-37
2022/08/13 08:20:04;;;;;;;;;;;21.80;58.90;;;;;;5043838;28;87088;-37
2022/08/13 08:22:30;;;;;;;;;;;21.80;59.10;;;;;;5043632;27;87408;-37
2022/08/13 08:24:56;;;;;;;;;;;21.80;59.10;;;;;;5043286;28;88068;-37
2022/08/13 08:27:24;;;;;;;;;;;21.80;59.10;;;;;;5043813;28;87745;-37
2022/08/13 08:29:49;;;;;;;;;;;21.80;58.90;;;;;;5043737;27;87479;-37
2022/08/13 08:32:16;;;;;;;;;;;21.80;59.00;;;;;;5046696;28;89175;-37
2022/08/13 08:34:46;;;;;;;;;;;21.80;58.80;;;;;;5043550;27;88180;-37
2022/08/13 08:42:35;;;;;;;;;;;21.80;58.70;;;;;;5042924;27;89711;-37
2022/08/13 08:42:44;;;;;;;;;;;21.80;58.90;;;;;;5043829;28;87716;-37
2022/08/13 08:45:14;;;;;;;;;;;21.80;59.00;;;;;;5042990;28;89473;-37
2022/08/13 08:47:40;;;;;;;;;;;21.80;58.90;;;;;;5043072;27;87090;-37
2022/08/13 08:50:07;;;;;;;;;;;21.90;59.00;;;;;;5043529;27;87182;-37
2022/08/13 08:55:18;;;;;;;;;;;21.90;59.00;;;;;;5046530;28;86949;-37
2022/08/13 08:57:44;;;;;;;;;;;21.90;59.00;;;;;;5043672;28;87292;-37
2022/08/13 09:00:14;;;;;;;;;;;21.90;59.10;;;;;;5042836;28;87128;-37
2022/08/13 09:02:39;;;;;;;;;;;21.90;59.10;;;;;;5043021;27;88820;-37
2022/08/13 09:05:07;;;;;;;;;;;21.90;59.10;;;;;;5042068;28;89270;-37
2022/08/13 09:07:52;;;;;;;;;;;21.90;59.00;;;;;;5042794;28;87757;-37
2022/08/13 09:10:19;;;;;;;;;;;21.90;59.10;;;;;;5043145;28;87440;-37
2022/08/13 09:12:45;;;;;;;;;;;21.90;59.00;;;;;;5042678;28;88027;-37
2022/08/13 09:15:12;;;;;;;;;;;21.90;59.10;;;;;;5042593;28;87213;-37
2022/08/13 09:17:38;;;;;;;;;;;21.80;59.20;;;;;;5045453;27;89161;-37
2022/08/13 09:20:05;;;;;;;;;;;21.90;59.20;;;;;;5042787;28;87073;-37
2022/08/13 09:22:31;;;;;;;;;;;21.90;59.30;;;;;;5043168;27;89006;-37
2022/08/13 09:24:57;;;;;;;;;;;21.90;59.30;;;;;;5042146;28;89467;-37
2022/08/13 09:27:23;;;;;;;;;;;21.90;59.40;;;;;;5042854;28;87059;-37
2022/08/13 09:29:50;;;;;;;;;;;21.90;59.40;;;;;;5042410;27;87874;-37
2022/08/13 09:32:16;;;;;;;;;;;21.90;59.30;;;;;;5042566;28;88049;-37
2022/08/13 09:34:44;;;;;;;;;;;21.90;59.40;;;;;;5042716;28;87136;-37
2022/08/13 09:37:10;;;;;;;;;;;21.90;59.30;;;;;;5042447;28;89004;-37
2022/08/13 09:39:44;;;;;;;;;;;21.90;59.30;;;;;;5044858;28;89435;-37
2022/08/13 09:42:16;;;;;;;;;;;21.90;59.30;;;;;;5041885;28;87437;-37
2022/08/13 09:44:42;;;;;;;;;;;21.90;59.30;;;;;;5042267;28;88021;-37
2022/08/13 09:47:11;;;;;;;;;;;21.90;59.30;;;;;;5042919;28;86342;-37
2022/08/13 09:49:37;;;;;;;;;;;22.00;59.30;;;;;;5042684;28;86889;-37
2022/08/13 09:52:03;;;;;;;;;;;22.00;59.10;;;;;;5042188;27;88035;-37
2022/08/13 09:54:29;;;;;;;;;;;22.00;59.10;;;;;;5041665;28;88161;-37
2022/08/13 09:56:58;;;;;;;;;;;22.00;59.00;;;;;;5042649;28;87739;-37
2022/08/13 09:59:24;;;;;;;;;;;22.00;59.10;;;;;;5041858;28;89564;-37
2022/08/13 10:01:50;;;;;;;;;;;22.10;58.90;;;;;;5045217;28;86958;-37
2022/08/13 10:04:18;;;;;;;;;;;22.10;59.20;;;;;;5042042;28;87122;-37
2022/08/13 10:06:47;;;;;;;;;;;22.00;59.40;;;;;;5042240;28;87183;-37
2022/08/13 10:09:13;;;;;;;;;;;22.10;59.30;;;;;;5041751;27;89098;-37
2022/08/13 10:11:39;;;;;;;;;;;22.10;59.20;;;;;;5042531;28;87386;-37
2022/08/13 10:14:04;;;;;;;;;;;22.10;59.10;;;;;;5042587;28;86997;-37
2022/08/13 10:16:30;;;;;;;;;;;22.10;59.10;;;;;;5041924;28;87433;-37
2022/08/13 10:18:55;;;;;;;;;;;22.10;59.30;;;;;;5041266;28;88975;-37
2022/08/13 10:21:21;;;;;;;;;;;22.00;59.20;;;;;;5042320;28;87118;-37
2022/08/13 10:23:47;;;;;;;;;;;22.00;59.10;;;;;;5044390;28;87617;-37
2022/08/13 10:26:17;;;;;;;;;;;22.10;59.20;;;;;;5041873;28;86997;-37
2022/08/13 10:28:42;;;;;;;;;;;22.00;59.30;;;;;;5041982;27;87539;-37
2022/08/13 10:31:08;;;;;;;;;;;22.00;59.30;;;;;;5041576;28;89951;-37
2022/08/13 10:33:35;;;;;;;;;;;22.00;59.40;;;;;;5042024;28;87229;-37
2022/08/13 10:36:00;;;;;;;;;;;22.00;59.30;;;;;;5042503;28;87595;-38
2022/08/13 10:38:29;;;;;;;;;;;22.00;59.30;;;;;;5041371;28;88190;-37
2022/08/13 10:40:55;;;;;;;;;;;22.00;59.30;;;;;;5042067;28;87104;-37
2022/08/13 10:43:21;;;;;;;;;;;22.00;59.30;;;;;;5043874;28;87885;-37
2022/08/13 10:45:51;;;;;;;;;;;22.00;59.40;;;;;;5041909;28;87080;-37
2022/08/13 10:48:17;;;;;;;;;;;22.00;59.50;;;;;;5041910;27;87418;-37
2022/08/13 10:50:43;;;;;;;;;;;22.00;59.40;;;;;;5041234;28;89472;-37
2022/08/13 10:53:54;;;;;;;;;;;22.00;59.40;;;;;;5042326;27;87295;-37
2022/08/13 10:55:54;;;;;;;;;;;21.90;59.30;;;;;;5044681;28;88392;-37
2022/08/13 10:58:20;;;;;;;;;;;22.00;59.30;;;;;;5044774;28;88240;-37
2022/08/13 11:00:45;;;;;;;;;;;22.00;59.30;;;;;;5045670;28;86350;-37
2022/08/13 11:03:16;;;;;;;;;;;22.00;59.40;;;;;;5044903;27;88073;-37
2022/08/13 11:05:41;;;;;;;;;;;22.00;59.40;;;;;;5046982;28;89186;-37
2022/08/13 11:08:07;;;;;;;;;;;22.00;59.40;;;;;;5044644;28;87918;-38
2022/08/13 11:10:32;;;;;;;;;;;22.00;59.30;;;;;;5044464;28;89285;-37
2022/08/13 11:12:58;;;;;;;;;;;22.00;59.40;;;;;;5044953;28;87125;-37
2022/08/13 11:15:23;;;;;;;;;;;22.00;59.40;;;;;;5044699;28;87457;-37
2022/08/13 11:17:50;;;;;;;;;;;22.00;59.30;;;;;;5044414;28;89567;-37
2022/08/13 11:20:19;;;;;;;;;;;22.00;59.40;;;;;;5044710;28;87115;-37
2022/08/13 11:22:49;;;;;;;;;;;22.10;59.40;;;;;;5044560;28;89105;-37
2022/08/13 11:25:14;;;;;;;;;;;22.10;59.20;;;;;;5044433;28;86580;-37
2022/08/13 11:27:40;;;;;;;;;;;22.10;59.30;;;;;;5047465;28;87125;-37
2022/08/13 11:30:06;;;;;;;;;;;22.10;59.40;;;;;;5044572;28;88030;-37
2022/08/13 11:32:31;;;;;;;;;;;22.10;59.40;;;;;;5043715;28;87942;-37
2022/08/13 11:34:57;;;;;;;;;;;22.20;59.30;;;;;;5044629;28;87505;-37
2022/08/13 11:37:23;;;;;;;;;;;22.10;59.30;;;;;;5043880;28;88604;-37
2022/08/13 11:39:48;;;;;;;;;;;22.20;59.30;;;;;;5044438;28;87091;-37
2022/08/13 11:42:14;;;;;;;;;;;22.20;59.30;;;;;;5044535;27;87208;-37
2022/08/13 11:44:39;;;;;;;;;;;22.20;59.20;;;;;;5044196;28;88118;-37
2022/08/13 11:47:05;;;;;;;;;;;22.20;59.60;;;;;;5044578;28;86992;-36
2022/08/13 11:49:31;;;;;;;;;;;22.20;59.50;;;;;;5047251;27;86961;-37
2022/08/13 11:51:56;;;;;;;;;;;22.20;59.50;;;;;;5044143;28;87104;-37
2022/08/13 11:54:23;;;;;;;;;;;22.20;59.50;;;;;;5044113;27;88116;-37
2022/08/13 11:56:48;;;;;;;;;;;22.20;59.50;;;;;;5042979;28;90348;-37
2022/08/13 11:59:14;;;;;;;;;;;22.20;59.60;;;;;;5044362;28;86814;-37
2022/08/13 12:01:39;;;;;;;;;;;22.20;59.90;;;;;;5044004;27;88886;-37
2022/08/13 12:04:05;;;;;;;;;;;22.20;59.80;;;;;;5043364;28;87732;-37
2022/08/13 12:06:30;;;;;;;;;;;22.20;59.90;;;;;;5044562;28;87350;-37
2022/08/13 12:08:56;;;;;;;;;;;22.20;60.20;;;;;;5044380;28;87582;-37
2022/08/13 12:11:22;;;;;;;;;;;22.20;60.20;;;;;;5046816;28;87529;-37
2022/08/13 12:13:47;;;;;;;;;;;22.20;60.10;;;;;;5044547;27;87387;-37
2022/08/13 12:16:13;;;;;;;;;;;22.30;60.30;;;;;;5042971;28;88169;-37
2022/08/13 12:18:38;;;;;;;;;;;22.20;60.20;;;;;;5043880;28;87130;-37
2022/08/13 12:21:04;;;;;;;;;;;22.30;60.20;;;;;;5043188;28;87964;-37
2022/08/13 12:23:29;;;;;;;;;;;22.30;60.20;;;;;;5043661;28;87513;-37
2022/08/13 12:25:55;;;;;;;;;;;22.30;60.30;;;;;;5043651;28;87622;-37
2022/08/13 12:28:24;;;;;;;;;;;22.30;60.30;;;;;;5043821;28;87541;-37
2022/08/13 12:30:51;;;;;;;;;;;22.20;60.30;;;;;;5043163;28;88203;-37
2022/08/13 12:33:17;;;;;;;;;;;22.30;60.50;;;;;;5046467;28;87069;-37
2022/08/13 12:35:43;;;;;;;;;;;22.20;60.60;;;;;;5043060;28;87952;-37
2022/08/13 12:38:10;;;;;;;;;;;22.30;60.50;;;;;;5044047;28;86271;-37
2022/08/13 12:40:36;;;;;;;;;;;22.30;60.50;;;;;;5043579;28;86988;-37
2022/08/13 12:43:02;;;;;;;;;;;22.30;60.40;;;;;;5043205;28;86969;-37
2022/08/13 12:45:27;;;;;;;;;;;22.30;61.00;;;;;;5043135;28;88118;-37
2022/08/13 12:47:53;;;;;;;;;;;22.30;61.30;;;;;;5043384;27;87457;-37
2022/08/13 12:50:19;;;;;;;;;;;22.30;60.90;;;;;;5042927;28;89297;-37
2022/08/13 12:52:45;;;;;;;;;;;22.30;60.70;;;;;;5046547;28;87111;-37
2022/08/13 12:55:10;;;;;;;;;;;22.30;61.00;;;;;;5043021;28;88006;-37
2022/08/13 12:57:37;;;;;;;;;;;22.20;60.60;;;;;;5043308;28;87218;-37
2022/08/13 13:00:04;;;;;;;;;;;22.20;60.90;;;;;;5043225;27;87390;-37
2022/08/13 13:02:30;;;;;;;;;;;22.30;61.60;;;;;;5043241;28;88964;-37
2022/08/13 13:04:55;;;;;;;;;;;22.20;60.80;;;;;;5042825;28;87092;-37
2022/08/13 13:07:21;;;;;;;;;;;22.30;60.90;;;;;;5043193;28;87010;-37
2022/08/13 13:09:46;;;;;;;;;;;22.30;61.00;;;;;;5042015;28;89052;-37
2022/08/13 13:12:12;;;;;;;;;;;22.30;60.70;;;;;;5042728;28;87070;-37
2022/08/13 13:14:37;;;;;;;;;;;22.30;61.00;;;;;;5045575;28;87544;-37
2022/08/13 13:17:03;;;;;;;;;;;22.20;60.70;;;;;;5041735;28;87093;-37
2022/08/13 13:19:28;;;;;;;;;;;22.30;60.60;;;;;;5042763;28;87473;-37
2022/08/13 13:21:54;;;;;;;;;;;22.20;60.60;;;;;;5042755;28;88382;-37
2022/08/13 13:24:19;;;;;;;;;;;22.20;60.70;;;;;;5042912;28;86959;-38
2022/08/13 13:26:50;;;;;;;;;;;22.20;60.60;;;;;;5043349;27;87286;-37
2022/08/13 13:29:15;;;;;;;;;;;22.20;60.70;;;;;;5042544;28;87941;-38
2022/08/13 13:31:41;;;;;;;;;;;22.20;60.70;;;;;;5043045;28;87142;-38
2022/08/13 13:34:06;;;;;;;;;;;22.10;60.70;;;;;;5042036;28;87956;-38
2022/08/13 13:36:32;;;;;;;;;;;22.20;60.70;;;;;;5045497;28;88155;-38
2022/08/13 13:38:58;;;;;;;;;;;22.20;60.60;;;;;;5042551;28;88951;-37
2022/08/13 13:41:23;;;;;;;;;;;22.20;60.60;;;;;;5042560;28;87902;-38
2022/08/13 13:43:49;;;;;;;;;;;22.20;60.50;;;;;;5042651;28;87119;-38
2022/08/13 13:46:14;;;;;;;;;;;22.30;60.40;;;;;;5042792;28;86983;-38
2022/08/13 13:48:41;;;;;;;;;;;22.30;60.30;;;;;;5042170;28;87696;-38
2022/08/13 13:51:07;;;;;;;;;;;22.30;60.40;;;;;;5043029;28;86338;-38
2022/08/13 13:53:33;;;;;;;;;;;22.30;60.40;;;;;;5042427;27;87080;-38
2022/08/13 13:55:59;;;;;;;;;;;22.30;60.20;;;;;;5042252;28;87873;-38
2022/08/13 13:58:25;;;;;;;;;;;22.40;60.30;;;;;;5044883;28;87994;-38
2022/08/13 14:00:52;;;;;;;;;;;22.30;60.20;;;;;;5041953;28;88758;-38
2022/08/13 14:03:17;;;;;;;;;;;22.40;60.50;;;;;;5042184;28;87100;-38
2022/08/13 14:05:43;;;;;;;;;;;22.40;60.60;;;;;;5042633;27;87423;-38
2022/08/13 14:08:08;;;;;;;;;;;22.40;60.60;;;;;;5042184;28;88054;-38
2022/08/13 14:10:34;;;;;;;;;;;22.40;60.80;;;;;;5042375;28;87152;-38
2022/08/13 14:13:00;;;;;;;;;;;22.40;60.70;;;;;;5042354;27;87507;-38
2022/08/13 14:15:27;;;;;;;;;;;22.40;61.50;;;;;;5042105;28;87096;-38
2022/08/13 14:17:55;;;;;;;;;;;22.40;60.90;;;;;;5041790;28;87101;-38
2022/08/13 14:20:21;;;;;;;;;;;22.40;60.90;;;;;;5044418;28;88244;-38
2022/08/13 14:22:48;;;;;;;;;;;22.40;60.90;;;;;;5041689;28;88107;-38
2022/08/13 14:25:15;;;;;;;;;;;22.40;61.00;;;;;;5041981;27;88355;-38
2022/08/13 14:27:42;;;;;;;;;;;22.50;61.10;;;;;;5043136;28;88007;-38
2022/08/13 14:30:08;;;;;;;;;;;22.40;61.10;;;;;;5045528;28;87204;-38
2022/08/13 14:32:35;;;;;;;;;;;22.40;61.00;;;;;;5045541;28;87851;-37
2022/08/13 14:35:06;;;;;;;;;;;22.50;61.10;;;;;;5045061;28;89457;-37